Time;durP1;ratioP1;P1;durP2;ratioP2;P2;SDS_P1;SDS_P2;PMS_P1;PMS_P2;Temp;Humidity;BMP_temperature;BMP_pressure;BME280_temperature;BME280_humidity;BME280_pressure;Samples;Min_cycle;Max_cycle;Signal;HPM_P1;HPM_P2
2020/12/07 00:00:33;;;;;;;;;29.50;28.50;;;;;-5.88;57.61;103011.84;4374267;32;8936;-76
2020/12/07 00:03:28;;;;;;;;;33.25;28.00;;;;;-6.00;58.18;103005.09;4364075;32;8907;-76
2020/12/07 00:06:24;;;;;;;;;39.00;29.00;;;;;-5.97;58.11;102991.31;4374047;32;8969;-76
2020/12/07 00:08:56;;;;;;;;;34.50;34.00;;;;;-5.78;57.59;102990.13;4355602;32;8882;-76
2020/12/07 00:11:51;;;;;;;;;35.00;32.00;;;;;-5.74;57.50;102991.50;4373980;32;8937;-76
2020/12/07 00:14:47;;;;;;;;;10.50;8.25;;;;;-6.21;58.54;102997.50;4373739;32;9661;-75
2020/12/07 00:17:42;;;;;;;;;37.50;31.75;;;;;-6.32;58.78;102988.84;4372599;32;8941;-76
2020/12/07 00:20:38;;;;;;;;;33.00;28.00;;;;;-6.15;58.78;102987.88;4373597;32;8891;-76
2020/12/07 00:23:34;;;;;;;;;48.25;45.25;;;;;-6.23;58.93;102994.09;4356166;32;8988;-76
2020/12/07 00:26:07;;;;;;;;;36.50;31.25;;;;;-6.38;59.46;102976.88;4352307;32;8935;-76
2020/12/07 00:29:04;;;;;;;;;38.00;36.25;;;;;-6.22;59.36;102979.59;4369663;32;8963;-76
2020/12/07 00:31:59;;;;;;;;;18.25;16.50;;;;;-6.32;59.57;102976.22;4358841;32;8875;-75
2020/12/07 00:34:27;;;;;;;;;21.75;16.50;;;;;-6.51;60.14;102973.81;4370561;32;8994;-76
2020/12/07 00:37:23;;;;;;;;;34.00;32.75;;;;;-6.60;60.55;102978.28;4373682;32;8903;-75
2020/12/07 00:40:18;;;;;;;;;32.25;29.25;;;;;-6.52;60.37;102966.72;4370659;32;8930;-75
2020/12/07 00:42:46;;;;;;;;;23.00;23.00;;;;;-6.56;60.43;102968.06;4370055;32;8873;-76
2020/12/07 00:45:14;;;;;;;;;23.25;23.25;;;;;-6.46;60.38;102980.38;4361955;32;8934;-75
2020/12/07 00:47:41;;;;;;;;;13.75;13.50;;;;;-6.50;60.49;102979.03;4373578;32;8897;-75
2020/12/07 00:50:37;;;;;;;;;16.50;16.50;;;;;-6.49;60.47;102972.63;4358895;32;8901;-75
2020/12/07 00:53:33;;;;;;;;;14.75;14.25;;;;;-6.33;60.25;102965.63;4370399;32;8960;-77
2020/12/07 00:56:29;;;;;;;;;21.25;20.25;;;;;-6.29;60.00;102975.87;4370414;32;8899;-75
2020/12/07 00:59:27;;;;;;;;;21.50;21.50;;;;;-6.17;59.80;102968.34;4369912;32;9613;-76
2020/12/07 01:02:23;;;;;;;;;13.00;13.00;;;;;-6.19;59.76;102970.38;4363400;32;8894;-75
2020/12/07 01:05:18;;;;;;;;;9.25;9.25;;;;;-6.22;60.09;102960.75;4348870;32;9673;-76
2020/12/07 01:08:14;;;;;;;;;11.50;11.50;;;;;-6.18;59.82;102962.13;4362445;32;8914;-75
2020/12/07 01:10:41;;;;;;;;;9.50;9.50;;;;;-6.17;59.97;102954.88;4371315;32;8982;-76
2020/12/07 01:13:39;;;;;;;;;7.75;7.75;;;;;-6.11;60.04;102956.09;4373024;32;8930;-75
2020/12/07 01:16:10;;;;;;;;;5.50;5.50;;;;;-6.24;60.25;102961.94;4373747;32;8874;-76
2020/12/07 01:19:07;;;;;;;;;11.50;11.50;;;;;-6.32;60.46;102951.97;4372663;32;8992;-76
2020/12/07 01:22:04;;;;;;;;;24.25;21.75;;;;;-6.13;60.10;102974.25;4366996;32;8959;-76
2020/12/07 01:24:31;;;;;;;;;57.75;46.75;;;;;-6.16;59.97;102956.56;4374125;32;8878;-76
2020/12/07 01:27:33;;;;;;;;;48.50;41.75;;;;;-6.15;60.07;102971.72;4363413;32;8900;-76
2020/12/07 01:30:02;;;;;;;;;34.25;34.25;;;;;-6.08;59.99;102961.13;4353008;32;8893;-76
2020/12/07 01:32:30;;;;;;;;;69.25;54.25;;;;;-6.22;60.33;102938.37;4344013;32;8878;-76
2020/12/07 01:35:26;;;;;;;;;32.25;31.00;;;;;-5.94;59.89;102947.00;4368099;32;8899;-76
2020/12/07 01:38:22;;;;;;;;;40.00;39.50;;;;;-6.21;60.61;102943.62;4368305;32;9586;-77
2020/12/07 01:40:50;;;;;;;;;34.75;33.00;;;;;-6.20;60.56;102941.75;4351599;32;8871;-77
2020/12/07 01:43:46;;;;;;;;;6.25;6.25;;;;;-6.18;60.43;102926.28;4360645;32;8899;-76
2020/12/07 01:46:19;;;;;;;;;46.25;42.75;;;;;-6.30;60.79;102930.28;4373540;32;9477;-76
2020/12/07 01:48:53;;;;;;;;;40.00;35.00;;;;;-6.07;60.23;102931.31;4374970;32;8871;-76
2020/12/07 01:51:49;;;;;;;;;43.50;33.75;;;;;-6.21;60.30;102927.44;4357435;32;8897;-77
2020/12/07 01:54:34;;;;;;;;;45.25;42.25;;;;;-5.99;59.79;102917.00;4368528;32;8898;-77
2020/12/07 01:57:30;;;;;;;;;67.00;51.75;;;;;-5.97;59.73;102932.03;4361702;32;8895;-77
2020/12/07 02:00:19;;;;;;;;;57.50;51.50;;;;;-6.00;59.80;102920.72;4367192;32;8929;-76
2020/12/07 02:03:15;;;;;;;;;60.50;51.75;;;;;-6.07;59.89;102931.31;4371064;32;8930;-77
2020/12/07 02:06:11;;;;;;;;;37.00;34.00;;;;;-5.77;59.23;102926.28;4372789;32;8911;-76
2020/12/07 02:09:06;;;;;;;;;25.00;25.00;;;;;-5.75;59.08;102917.03;4368123;32;8887;-76
2020/12/07 02:11:43;;;;;;;;;30.50;30.50;;;;;-5.74;58.90;102932.19;4368490;32;8995;-77
2020/12/07 02:14:39;;;;;;;;;30.50;29.00;;;;;-5.68;58.79;102944.13;4358294;32;8906;-76
2020/12/07 02:17:08;;;;;;;;;36.50;34.00;;;;;-5.66;58.59;102955.59;4369926;32;8871;-76
2020/12/07 02:20:04;;;;;;;;;40.00;34.00;;;;;-5.94;59.39;102949.72;4373030;32;8973;-77
2020/12/07 02:23:00;;;;;;;;;21.75;19.50;;;;;-5.84;59.26;102949.50;4364008;32;8889;-77
2020/12/07 02:25:55;;;;;;;;;22.00;20.50;;;;;-5.91;59.46;102942.13;4360627;32;9014;-76
2020/12/07 02:28:51;;;;;;;;;25.00;25.00;;;;;-5.83;59.14;102943.09;4372932;32;9623;-76
2020/12/07 02:31:47;;;;;;;;;21.00;21.00;;;;;-5.97;59.34;102941.97;4358052;32;9583;-76
2020/12/07 02:34:43;;;;;;;;;24.50;20.50;;;;;-5.85;59.33;102937.88;4372362;32;9009;-76
2020/12/07 02:37:41;;;;;;;;;21.50;20.75;;;;;-5.80;59.18;102919.38;4370980;32;8895;-75
2020/12/07 02:40:37;;;;;;;;;25.25;22.75;;;;;-5.78;59.29;102919.19;4366267;32;8895;-76
2020/12/07 02:43:33;;;;;;;;;11.50;11.50;;;;;-5.79;59.30;102921.06;4352390;32;8969;-75
2020/12/07 02:46:29;;;;;;;;;26.25;20.50;;;;;-6.02;59.74;102931.69;4357592;32;8871;-75
2020/12/07 02:49:11;;;;;;;;;10.75;10.75;;;;;-5.92;59.63;102936.91;4356501;32;9000;-75
2020/12/07 02:52:06;;;;;;;;;20.00;19.50;;;;;-6.10;59.93;102942.44;4355819;32;8898;-75
2020/12/07 02:55:08;;;;;;;;;27.25;23.50;;;;;-6.14;60.11;102935.69;4370505;32;8911;-75
2020/12/07 02:58:03;;;;;;;;;35.00;31.50;;;;;-6.09;60.08;102933.34;4371773;32;8935;-75
2020/12/07 03:00:32;;;;;;;;;31.75;29.75;;;;;-6.09;60.23;102938.75;4359404;32;8905;-76
2020/12/07 03:03:27;;;;;;;;;28.50;26.00;;;;;-6.07;60.25;102933.19;4366451;32;8883;-75
2020/12/07 03:05:55;;;;;;;;;24.00;21.25;;;;;-6.00;60.06;102937.72;4373156;32;8910;-75
2020/12/07 03:08:51;;;;;;;;;18.50;16.00;;;;;-6.10;60.40;102931.66;4372244;32;9560;-75
2020/12/07 03:11:33;;;;;;;;;9.00;8.50;;;;;-6.17;60.70;102928.78;4372204;32;8949;-75
2020/12/07 03:14:29;;;;;;;;;15.00;15.00;;;;;-6.16;60.70;102919.69;4371954;32;8961;-76
2020/12/07 03:16:57;;;;;;;;;16.25;15.50;;;;;-5.95;60.35;102932.69;4373888;32;8928;-76
2020/12/07 03:19:33;;;;;;;;;22.50;20.00;;;;;-5.95;60.24;102932.69;4361468;32;8886;-76
2020/12/07 03:22:28;;;;;;;;;18.50;17.00;;;;;-5.85;59.88;102929.81;4371519;32;8895;-76
2020/12/07 03:25:19;;;;;;;;;30.50;24.25;;;;;-5.81;59.80;102914.16;4372427;32;9029;-76
2020/12/07 03:28:15;;;;;;;;;20.50;20.50;;;;;-5.72;59.62;102921.22;4371630;32;8911;-76
2020/12/07 03:31:11;;;;;;;;;24.50;22.50;;;;;-5.50;59.06;102927.78;4367519;32;9634;-76
2020/12/07 03:34:08;;;;;;;;;20.75;20.25;;;;;-5.45;58.84;102930.81;4361991;32;8895;-76
2020/12/07 03:36:35;;;;;;;;;17.00;17.00;;;;;-5.77;59.45;102924.41;4370049;32;8900;-75
2020/12/07 03:39:32;;;;;;;;;21.25;18.25;;;;;-5.80;59.55;102927.47;4371399;32;8977;-75
2020/12/07 03:42:14;;;;;;;;;29.50;29.00;;;;;-5.97;60.00;102917.72;4369124;32;8941;-76
2020/12/07 03:44:56;;;;;;;;;18.00;16.75;;;;;-5.95;60.19;102907.59;4375405;32;8890;-75
2020/12/07 03:47:53;;;;;;;;;23.50;21.50;;;;;-6.00;60.05;102921.56;4364234;32;9544;-75
2020/12/07 03:50:20;;;;;;;;;11.50;10.50;;;;;-6.02;60.26;102920.06;4362404;32;8981;-75
2020/12/07 03:53:16;;;;;;;;;45.25;43.50;;;;;-5.96;60.17;102911.31;4355941;32;8950;-76
2020/12/07 03:56:12;;;;;;;;;30.75;30.00;;;;;-5.85;60.05;102902.00;4372589;32;8904;-76
2020/12/07 03:59:07;;;;;;;;;23.50;21.00;;;;;-5.82;59.57;102901.69;4373107;32;8961;-75
2020/12/07 04:02:03;;;;;;;;;24.00;23.25;;;;;-5.91;59.83;102928.66;4362431;32;9004;-76
2020/12/07 04:04:49;;;;;;;;;15.00;15.00;;;;;-5.83;59.63;102941.25;4369993;32;8874;-75
2020/12/07 04:07:45;;;;;;;;;20.75;18.50;;;;;-5.70;59.12;102933.50;4373267;32;9555;-76
2020/12/07 04:10:42;;;;;;;;;18.75;18.50;;;;;-5.59;58.93;102929.66;4373137;32;8872;-76
2020/12/07 04:13:37;;;;;;;;;23.00;23.00;;;;;-5.60;58.78;102949.50;4368866;32;8978;-76
2020/12/07 04:16:33;;;;;;;;;21.00;20.00;;;;;-5.30;58.13;102956.06;4375150;32;8879;-76
2020/12/07 04:19:21;;;;;;;;;23.50;21.75;;;;;-5.30;58.10;102953.38;4376038;32;8887;-76
2020/12/07 04:22:17;;;;;;;;;34.00;34.00;;;;;-5.09;57.51;102952.84;4374974;32;8915;-76
2020/12/07 04:24:45;;;;;;;;;26.00;23.00;;;;;-5.39;58.05;102947.16;4374664;32;8898;-76
2020/12/07 04:27:40;;;;;;;;;34.00;30.25;;;;;-5.68;58.75;102950.34;4373851;32;9634;-76
2020/12/07 04:30:40;;;;;;;;;36.00;28.00;;;;;-5.64;58.81;102954.41;4373727;32;8968;-76
2020/12/07 04:33:36;;;;;;;;;21.00;21.00;;;;;-5.55;58.35;102968.72;4370549;32;8980;-76
2020/12/07 04:36:23;;;;;;;;;27.50;26.50;;;;;-5.43;58.22;102975.50;4374473;32;9433;-76
2020/12/07 04:39:18;;;;;;;;;18.25;18.25;;;;;-5.35;57.93;102964.69;4364883;32;8890;-76
2020/12/07 04:42:15;;;;;;;;;19.25;19.00;;;;;-5.45;57.92;102977.50;4371385;32;9638;-75
2020/12/07 04:44:42;;;;;;;;;13.50;13.50;;;;;-5.58;58.47;102985.25;4374226;32;8925;-75
2020/12/07 04:47:43;;;;;;;;;24.75;22.25;;;;;-5.42;58.04;102966.38;4372936;32;8949;-75
2020/12/07 04:50:39;;;;;;;;;4.50;4.50;;;;;-5.64;58.57;102956.28;4369688;32;8887;-75
2020/12/07 04:53:36;;;;;;;;;15.50;15.50;;;;;-5.53;58.05;102961.31;4363862;32;8934;-75
2020/12/07 04:56:36;;;;;;;;;17.75;17.75;;;;;-5.59;58.31;102967.41;4368071;32;8903;-75
2020/12/07 04:59:33;;;;;;;;;19.75;19.75;;;;;-5.47;57.83;102946.31;4365878;32;8904;-75
2020/12/07 05:02:28;;;;;;;;;21.25;19.50;;;;;-5.46;57.85;102948.00;4370772;32;9012;-76
2020/12/07 05:05:24;;;;;;;;;17.00;14.00;;;;;-5.62;58.12;102944.28;4373422;32;8935;-76
2020/12/07 05:08:20;;;;;;;;;13.25;13.25;;;;;-5.58;57.90;102942.13;4363060;32;9624;-76
2020/12/07 05:11:16;;;;;;;;;23.75;22.50;;;;;-5.63;57.93;102947.16;4363037;32;8880;-75
2020/12/07 05:14:13;;;;;;;;;11.50;11.50;;;;;-5.62;57.81;102956.94;4369869;32;8991;-76
2020/12/07 05:16:55;;;;;;;;;24.75;24.75;;;;;-5.43;57.27;102959.31;4373954;32;8883;-76
2020/12/07 05:19:51;;;;;;;;;12.50;12.25;;;;;-5.62;57.53;102970.41;4373226;32;8899;-77
2020/12/07 05:22:19;;;;;;;;;10.00;10.00;;;;;-5.53;57.52;102961.31;4373433;32;8886;-77
2020/12/07 05:24:51;;;;;;;;;15.00;15.00;;;;;-5.13;59.86;102970.41;4373492;32;8891;-78
2020/12/07 05:27:47;;;;;;;;;17.25;17.25;;;;;-5.21;56.96;102948.84;4362400;32;8963;-78
2020/12/07 05:30:46;;;;;;;;;14.75;13.25;;;;;-5.31;56.56;102952.53;4366765;32;8911;-77
2020/12/07 05:33:31;;;;;;;;;23.00;18.75;;;;;-5.14;57.66;102947.09;4367039;32;8894;-77
2020/12/07 05:36:26;;;;;;;;;37.50;34.25;;;;;-5.38;58.10;102948.00;4354862;32;8931;-75
2020/12/07 05:39:25;;;;;;;;;30.25;29.00;;;;;-5.25;57.57;102942.91;4351260;32;8889;-79
2020/12/07 05:42:22;;;;;;;;;28.25;23.75;;;;;-5.32;56.60;102937.38;4349562;32;8885;-76
2020/12/07 05:44:56;;;;;;;;;35.50;34.00;;;;;-5.36;56.47;102936.03;4359641;32;8885;-76
2020/12/07 05:47:57;;;;;;;;;54.00;45.00;;;;;-5.21;56.61;102946.13;4366708;32;8992;-76
2020/12/07 05:50:55;;;;;;;;;31.00;27.00;;;;;-5.16;55.92;102938.34;4369852;32;9004;-76
2020/12/07 05:53:38;;;;;;;;;44.75;37.25;;;;;-5.30;55.96;102945.28;4361564;32;8892;-76
2020/12/07 05:56:34;;;;;;;;;39.00;39.00;;;;;-4.90;55.44;102938.13;4364685;32;8902;-76
2020/12/07 05:59:21;;;;;;;;;32.50;32.00;;;;;-4.60;54.75;102941.87;4365470;32;8998;-76
2020/12/07 06:02:00;;;;;;;;;15.75;15.75;;;;;-4.95;54.82;102938.63;4369612;32;8963;-76
2020/12/07 06:04:57;;;;;;;;;19.00;18.50;;;;;-4.94;54.40;102936.78;4344516;32;9544;-76
2020/12/07 06:07:34;;;;;;;;;33.00;30.00;;;;;-4.83;54.69;102936.41;4353446;32;8948;-76
2020/12/07 06:10:40;;;;;;;;;26.00;23.00;;;;;-4.67;54.56;102924.72;4347988;32;8974;-77
2020/12/07 06:13:13;;;;;;;;;23.00;22.00;;;;;-4.77;54.25;102933.84;4352443;32;8894;-78
2020/12/07 06:16:08;;;;;;;;;24.00;23.00;;;;;-4.41;54.08;102937.91;4352683;32;8911;-77
2020/12/07 06:18:42;;;;;;;;;22.50;21.50;;;;;-4.36;56.63;102944.47;4360239;32;8904;-77
2020/12/07 06:21:44;;;;;;;;;18.75;17.50;;;;;-4.46;53.83;102941.13;4363889;32;9599;-77
2020/12/07 06:24:40;;;;;;;;;24.50;23.00;;;;;-4.23;56.63;102923.09;4363545;32;8962;-77
2020/12/07 06:27:11;;;;;;;;;20.50;19.50;;;;;-4.50;53.87;102927.16;4359517;32;9651;-75
2020/12/07 06:30:06;;;;;;;;;13.75;12.75;;;;;-4.57;54.22;102914.53;4351856;32;9015;-74
2020/12/07 06:33:07;;;;;;;;;21.50;21.50;;;;;-4.38;53.79;102914.06;4359248;32;9039;-73
2020/12/07 06:36:27;;;;;;;;;12.50;11.00;;;;;-4.39;53.88;102916.97;4364712;32;8946;-75
2020/12/07 06:39:26;;;;;;;;;24.00;16.50;;;;;-4.50;53.37;102893.91;4358677;32;8890;-75
2020/12/07 06:42:27;;;;;;;;;13.00;13.00;;;;;-4.42;54.81;102904.66;4346973;32;8979;-74
2020/12/07 06:45:08;;;;;;;;;10.00;10.00;;;;;-4.19;55.27;102893.88;4355577;32;8976;-74
2020/12/07 06:47:40;;;;;;;;;12.50;12.50;;;;;-4.30;54.98;102888.88;4370618;32;9012;-75
2020/12/07 06:50:15;;;;;;;;;14.50;12.00;;;;;-4.23;53.03;102890.69;4356155;32;8941;-75
2020/12/07 06:52:44;;;;;;;;;18.25;13.25;;;;;-3.84;53.57;102894.28;4343676;32;8906;-75
2020/12/07 06:55:16;;;;;;;;;10.50;10.50;;;;;-3.89;54.35;102894.00;4370903;32;8953;-74
2020/12/07 06:57:57;;;;;;;;;14.50;14.50;;;;;-3.83;51.66;102895.97;4345449;32;8896;-74
2020/12/07 07:00:27;;;;;;;;;17.50;16.00;;;;;-4.03;51.87;102890.22;4357988;32;8914;-74
2020/12/07 07:02:57;;;;;;;;;15.00;15.00;;;;;-3.67;51.80;102904.81;4367164;32;8940;-74
2020/12/07 07:05:53;;;;;;;;;18.25;17.00;;;;;-3.57;51.60;102909.94;4366707;32;8948;-74
2020/12/07 07:08:29;;;;;;;;;14.50;12.75;;;;;-3.32;51.96;102909.72;4370580;32;8936;-74
2020/12/07 07:11:03;;;;;;;;;15.00;15.00;;;;;-3.01;52.11;102912.25;4370911;32;9021;-73
2020/12/07 07:13:59;;;;;;;;;14.25;14.25;;;;;-3.14;54.14;102913.75;4367026;32;9524;-73
2020/12/07 07:16:55;;;;;;;;;15.25;15.25;;;;;-2.89;53.04;102919.75;4362619;32;8895;-73
2020/12/07 07:19:41;;;;;;;;;15.75;15.75;;;;;-2.84;52.09;102922.75;4364440;32;8888;-73
2020/12/07 07:22:09;;;;;;;;;50.75;33.75;;;;;-2.99;51.17;102904.78;4358545;32;9546;-73
2020/12/07 07:28:07;;;;;;;;;12.00;12.00;;;;;-2.56;50.72;102900.38;4360321;32;9001;-73
2020/12/07 07:31:07;;;;;;;;;13.00;13.00;;;;;-2.47;51.24;102909.22;4353100;33;8917;-72
2020/12/07 07:34:04;;;;;;;;;9.00;9.00;;;;;-2.60;51.25;102902.62;4357492;32;9596;-73
2020/12/07 07:37:00;;;;;;;;;10.25;10.25;;;;;-2.25;53.38;102910.94;4368779;32;8929;-73
2020/12/07 07:39:27;;;;;;;;;14.50;14.50;;;;;-2.32;50.83;102908.16;4364548;32;8894;-73
2020/12/07 07:42:14;;;;;;;;;16.75;15.25;;;;;-2.40;51.61;102894.72;4367924;32;8952;-73
2020/12/07 07:45:07;;;;;;;;;11.50;11.00;;;;;-2.43;52.53;102899.69;4360057;32;8986;-73
2020/12/07 07:47:53;;;;;;;;;15.00;15.00;;;;;-2.37;50.28;102921.47;4366144;32;8874;-72
2020/12/07 08:11:54;;;;;;;;;17.33;15.33;;;;;-0.88;47.34;102912.31;4366339;32;8887;-71
2020/12/07 08:17:18;;;;;;;;;4.00;4.00;;;;;-0.25;46.50;102933.91;4370087;32;9060;-70
2020/12/07 08:19:48;;;;;;;;;15.33;10.00;;;;;-0.36;46.08;102939.97;4370446;32;8914;-71
2020/12/07 08:22:21;;;;;;;;;28.67;18.67;;;;;-0.53;46.32;102939.47;4370607;32;8922;-72
2020/12/07 08:25:00;;;;;;;;;10.67;10.67;;;;;-0.73;46.40;102925.78;4366724;32;8905;-72
2020/12/07 08:27:35;;;;;;;;;12.67;12.67;;;;;-1.13;47.92;102919.28;4373086;32;8882;-71
2020/12/07 08:30:08;;;;;;;;;10.00;9.00;;;;;-0.70;47.16;102916.38;4371437;32;8944;-71
2020/12/07 08:32:35;;;;;;;;;18.00;18.00;;;;;-0.87;47.44;102908.56;4371895;32;8887;-71
2020/12/07 08:35:13;;;;;;;;;16.67;16.00;;;;;-0.36;47.09;102899.16;4363110;32;8914;-71
2020/12/07 08:37:54;;;;;;;;;21.00;18.00;;;;;-0.63;47.62;102903.66;4367029;32;8985;-71
2020/12/07 08:40:50;;;;;;;;;14.67;11.67;;;;;-0.35;46.85;102907.13;4371313;32;8888;-71
2020/12/07 08:43:17;;;;;;;;;8.33;8.33;;;;;-0.51;46.75;102907.47;4346152;32;8910;-71
2020/12/07 08:46:18;;;;;;;;;4.00;3.33;;;;;-0.62;47.27;102898.00;4368806;32;8905;-71
2020/12/07 08:49:14;;;;;;;;;12.33;12.33;;;;;-0.83;48.00;102890.00;4364441;32;9059;-72
2020/12/07 08:52:05;;;;;;;;;15.00;15.00;;;;;-0.15;46.80;102887.31;4369056;32;8986;-71
2020/12/07 08:54:35;;;;;;;;;11.00;11.00;;;;;-0.18;46.56;102869.50;4361581;32;8958;-71
2020/12/07 08:57:31;;;;;;;;;12.33;12.33;;;;;0.34;45.91;102867.88;4367403;32;8913;-71
2020/12/07 09:00:27;;;;;;;;;27.67;18.67;;;;;0.12;46.02;102878.13;4366632;32;8896;-72
2020/12/07 09:02:55;;;;;;;;;12.33;12.33;;;;;-0.14;46.25;102878.09;4369645;32;8882;-72
2020/12/07 09:12:22;;;;;;;;;16.67;15.67;;;;;0.57;45.87;102870.19;4366465;32;8830;-70
2020/12/07 09:15:18;;;;;;;;;22.00;21.00;;;;;0.76;45.24;102872.03;4366753;32;8905;-71
2020/12/07 09:17:46;;;;;;;;;7.00;7.00;;;;;0.66;45.54;102860.75;4377528;32;8903;-71
2020/12/07 09:20:42;;;;;;;;;14.00;12.33;;;;;0.31;46.05;102841.09;4354089;32;9005;-70
2020/12/07 09:23:39;;;;;;;;;15.33;13.67;;;;;0.30;46.50;102844.00;4363067;32;8887;-71
2020/12/07 09:26:35;;;;;;;;;14.33;14.33;;;;;0.06;47.35;102840.03;4352909;32;8913;-71
2020/12/07 09:29:02;;;;;;;;;12.33;12.33;;;;;-0.36;48.13;102836.63;4359014;32;8970;-71
2020/12/07 09:31:29;;;;;;;;;10.00;10.00;;;;;0.12;47.13;102833.75;4358282;32;8915;-71
2020/12/07 09:34:02;;;;;;;;;12.00;12.00;;;;;0.14;46.87;102840.66;4351442;32;8968;-71
2020/12/07 09:36:31;;;;;;;;;6.00;6.00;;;;;0.56;46.34;102846.72;4349058;32;8875;-73
2020/12/07 09:38:59;;;;;;;;;16.00;15.67;;;;;0.60;46.29;102828.91;4368632;32;8939;-71
2020/12/07 09:41:29;;;;;;;;;16.00;16.00;;;;;0.62;46.32;102836.87;4358754;32;8900;-72
2020/12/07 09:44:25;;;;;;;;;18.33;18.33;;;;;0.72;46.14;102826.37;4363852;32;9007;-73
2020/12/07 09:47:06;;;;;;;;;10.33;10.33;;;;;1.23;45.30;102825.59;4358085;32;8916;-72
2020/12/07 09:49:35;;;;;;;;;9.33;9.33;;;;;0.82;45.83;102824.03;4372161;32;8874;-72
2020/12/07 09:52:03;;;;;;;;;16.00;16.00;;;;;1.21;45.33;102817.59;4354736;32;8944;-71
2020/12/07 09:54:37;;;;;;;;;12.33;12.33;;;;;1.01;45.65;102814.97;4364707;32;9538;-73
2020/12/07 09:57:06;;;;;;;;;9.67;9.67;;;;;1.20;45.38;102829.56;4355330;32;9621;-72
2020/12/07 09:59:36;;;;;;;;;14.00;12.33;;;;;0.76;45.55;102823.00;4367476;32;8881;-72
2020/12/07 10:02:03;;;;;;;;;16.00;16.00;;;;;1.12;45.33;102816.19;4367318;32;8937;-72
2020/12/07 10:04:32;;;;;;;;;8.67;8.67;;;;;1.19;45.20;102822.44;4335525;32;8892;-72
2020/12/07 10:07:08;;;;;;;;;11.67;10.00;;;;;0.76;45.77;102812.09;4353359;32;8978;-71
2020/12/07 10:09:42;;;;;;;;;11.00;11.00;;;;;0.93;45.71;102814.38;4371045;32;8922;-73
2020/12/07 10:12:10;;;;;;;;;13.00;12.67;;;;;0.84;45.74;102813.75;4362574;32;8927;-71
2020/12/07 10:14:37;;;;;;;;;17.00;17.00;;;;;1.08;44.81;102821.25;4364485;32;8888;-71
2020/12/07 10:17:08;;;;;;;;;9.33;9.33;;;;;1.66;44.25;102818.41;4362270;32;8901;-71
2020/12/07 10:19:50;;;;;;;;;10.00;10.00;;;;;1.74;43.52;102813.75;4359330;32;8903;-71
2020/12/07 10:22:17;;;;;;;;;10.00;10.00;;;;;2.32;42.39;102802.59;4353687;32;8898;-71
2020/12/07 10:24:44;;;;;;;;;18.33;18.33;;;;;1.68;42.72;102816.28;4365960;32;8942;-71
2020/12/07 10:27:15;;;;;;;;;11.67;7.00;;;;;1.55;43.06;102819.13;4363117;32;9038;-73
2020/12/07 10:29:44;;;;;;;;;15.67;15.67;;;;;2.06;42.28;102792.72;4353921;32;8898;-71
2020/12/07 10:32:20;;;;;;;;;12.33;9.33;;;;;1.87;42.32;102797.28;4359262;32;8887;-71
2020/12/07 10:34:47;;;;;;;;;17.33;17.33;;;;;2.26;41.26;102798.03;4367965;32;8910;-71
2020/12/07 10:37:18;;;;;;;;;10.33;10.00;;;;;2.05;41.39;102808.25;4355397;32;8971;-71
2020/12/07 10:39:46;;;;;;;;;20.00;18.33;;;;;2.13;41.11;102796.22;4353008;32;8913;-71
2020/12/07 10:42:17;;;;;;;;;37.67;28.00;;;;;2.00;41.11;102802.66;4366164;32;8950;-71
2020/12/07 10:44:49;;;;;;;;;13.00;12.33;;;;;2.16;40.62;102804.84;4370140;32;8902;-70
2020/12/07 10:47:18;;;;;;;;;32.00;32.00;;;;;2.43;40.31;102802.69;4366093;32;13039;-72
2020/12/07 10:49:49;;;;;;;;;10.00;7.33;;;;;1.69;41.27;102819.87;4367939;32;8924;-71
2020/12/07 10:52:31;;;;;;;;;7.00;7.00;;;;;2.23;40.63;102802.03;4354565;32;8928;-70
2020/12/07 10:54:59;;;;;;;;;11.00;11.00;;;;;2.69;39.54;102814.41;4366224;32;12334;-72
2020/12/07 10:57:54;;;;;;;;;10.50;10.50;;;;;2.75;39.15;102810.75;4368625;32;8931;-72
2020/12/07 11:00:28;;;;;;;;;11.67;10.67;;;;;2.73;39.19;102815.63;4354394;32;12257;-71
2020/12/07 11:02:57;;;;;;;;;8.00;8.00;;;;;2.95;38.64;102805.91;4368324;32;12339;-69
2020/12/07 11:05:26;;;;;;;;;15.25;11.75;;;;;2.84;38.65;102803.94;4354608;32;12451;-72
2020/12/07 11:07:56;;;;;;;;;11.25;11.25;;;;;2.98;38.83;102805.44;4357749;32;12344;-73
2020/12/07 11:10:24;;;;;;;;;15.00;14.75;;;;;3.11;39.11;102795.41;4368286;32;12328;-71
2020/12/07 11:13:01;;;;;;;;;12.25;11.00;;;;;3.34;38.71;102801.84;4354519;32;12299;-71
2020/12/07 11:15:39;;;;;;;;;14.33;14.33;;;;;2.24;40.18;102787.34;4364885;32;12305;-71
2020/12/07 11:18:06;;;;;;;;;21.67;20.67;;;;;2.66;39.66;102780.16;4346594;32;12317;-71
2020/12/07 11:20:48;;;;;;;;;10.25;10.25;;;;;2.69;39.77;102792.56;4335409;32;12316;-71
2020/12/07 11:23:34;;;;;;;;;10.50;10.50;;;;;3.08;39.46;102787.69;4351727;32;12341;-72
2020/12/07 11:26:05;;;;;;;;;12.00;12.00;;;;;2.76;40.20;102775.03;4358477;32;12397;-71
2020/12/07 11:28:34;;;;;;;;;8.00;8.00;;;;;2.75;40.31;102781.53;4369870;32;12321;-71
2020/12/07 11:31:01;;;;;;;;;14.00;14.00;;;;;2.16;40.73;102777.53;4349859;32;12290;-70
2020/12/07 11:33:30;;;;;;;;;17.00;15.33;;;;;2.37;40.73;102784.44;4352773;32;12287;-71
2020/12/07 11:36:27;;;;;;;;;10.33;9.33;;;;;2.17;41.19;102776.47;4368069;32;12374;-72
2020/12/07 11:44:46;;;;;;;;;14.33;13.00;;;;;2.26;40.53;102767.97;4289463;33;8971;-71
2020/12/07 11:47:36;;;;;;;;;14.00;13.00;;;;;1.90;40.68;102767.66;4339107;32;8932;-71
2020/12/07 11:50:04;;;;;;;;;12.67;11.67;;;;;2.42;39.84;102770.97;4362126;32;12341;-71
2020/12/07 11:52:35;;;;;;;;;43.33;26.00;;;;;2.15;39.85;102772.31;4350777;32;12428;-71
2020/12/07 11:55:03;;;;;;;;;13.67;8.67;;;;;2.10;40.04;102775.69;4368888;32;8898;-72
2020/12/07 11:57:35;;;;;;;;;9.67;9.67;;;;;2.27;39.83;102775.94;4351154;32;8947;-71
2020/12/07 12:00:04;;;;;;;;;11.67;11.67;;;;;1.77;39.94;102780.59;4366752;32;12295;-70
2020/12/07 12:02:35;;;;;;;;;22.00;13.33;;;;;1.84;40.11;102789.53;4372191;32;8992;-71
2020/12/07 12:05:03;;;;;;;;;26.67;25.33;;;;;1.61;40.23;102790.09;4350634;32;9030;-72
2020/12/07 12:07:59;;;;;;;;;16.67;13.33;;;;;1.37;40.37;102802.63;4368303;32;8887;-71
2020/12/07 12:10:46;;;;;;;;;17.67;17.67;;;;;0.91;40.76;102798.22;4367936;32;8894;-71
2020/12/07 12:13:13;;;;;;;;;13.33;13.33;;;;;1.12;40.63;102799.81;4360581;32;8955;-71
2020/12/07 12:16:08;;;;;;;;;22.33;22.33;;;;;1.47;40.01;102808.47;4365198;32;8897;-71
2020/12/07 12:19:09;;;;;;;;;13.33;13.33;;;;;1.03;40.60;102792.94;4363194;32;8900;-71
2020/12/07 12:21:38;;;;;;;;;16.00;14.33;;;;;0.77;40.71;102800.19;4367071;32;8902;-71
2020/12/07 12:24:53;;;;;;;;;15.00;15.00;;;;;1.02;40.49;102794.84;4365629;32;9623;-71
2020/12/07 12:27:52;;;;;;;;;10.67;10.00;;;;;1.07;40.28;102803.22;4367626;32;8907;-71
2020/12/07 12:30:27;;;;;;;;;15.67;15.67;;;;;0.79;40.75;102805.41;4337506;32;8942;-71
2020/12/07 12:33:23;;;;;;;;;20.67;20.67;;;;;1.00;40.57;102813.31;4365307;32;9588;-71
2020/12/07 12:36:22;;;;;;;;;12.67;12.67;;;;;0.83;40.61;102821.09;4363674;32;8913;-72
2020/12/07 12:39:20;;;;;;;;;17.33;16.00;;;;;0.49;40.95;102814.06;4365293;32;8956;-71
2020/12/07 12:41:52;;;;;;;;;15.67;15.00;;;;;0.57;41.27;102815.72;4362613;32;8886;-71
2020/12/07 12:45:10;;;;;;;;;11.33;11.33;;;;;0.74;40.76;102803.31;4362875;32;8884;-71
2020/12/07 12:48:08;;;;;;;;;24.67;22.67;;;;;0.27;41.54;102799.00;4354721;32;8915;-71
2020/12/07 12:50:38;;;;;;;;;22.33;22.33;;;;;0.53;41.52;102812.56;4344642;32;8882;-72
2020/12/07 12:53:34;;;;;;;;;18.00;15.67;;;;;0.61;41.36;102825.12;4367229;32;8973;-71
2020/12/07 12:56:30;;;;;;;;;12.00;12.00;;;;;0.39;41.39;102818.28;4365235;32;8905;-71
2020/12/07 12:58:57;;;;;;;;;20.67;20.67;;;;;0.37;41.33;102810.28;4352859;32;8886;-72
2020/12/07 13:01:39;;;;;;;;;24.33;24.33;;;;;0.13;41.60;102830.81;4365067;32;8930;-72
2020/12/07 13:04:35;;;;;;;;;19.67;18.67;;;;;0.25;41.47;102829.16;4363725;32;8927;-73
2020/12/07 13:07:02;;;;;;;;;22.00;20.33;;;;;0.38;41.42;102822.00;4369346;32;8933;-71
2020/12/07 13:09:58;;;;;;;;;22.00;22.00;;;;;-0.28;42.07;102831.00;4363669;32;8903;-71
2020/12/07 13:13:13;;;;;;;;;21.33;18.00;;;;;-0.48;42.55;102838.25;4367349;32;8909;-72
2020/12/07 13:16:14;;;;;;;;;27.00;25.33;;;;;-0.22;42.14;102843.78;4346524;32;8880;-71
2020/12/07 13:19:28;;;;;;;;;9.33;9.33;;;;;-0.39;42.20;102843.28;4363040;32;8901;-74
2020/12/07 13:25:05;;;;;;;;;13.00;13.00;;;;;-0.41;42.26;102845.38;4366811;32;9630;-73